sensor_id;sensor_type;location;lat;lon;timestamp;pressure;altitude;pressure_sealevel;temperature
64916;BMP280;51427;-27.442;153.014;2022-07-22T00:00:33;101769.09;;;20.74
64916;BMP280;51427;-27.442;153.014;2022-07-22T00:03:01;101782.09;;;20.55
64916;BMP280;51427;-27.442;153.014;2022-07-22T00:05:28;101787.00;;;20.39
64916;BMP280;51427;-27.442;153.014;2022-07-22T00:07:56;101793.34;;;20.16
64916;BMP280;51427;-27.442;153.014;2022-07-22T00:10:24;101784.25;;;20.20
64916;BMP280;51427;-27.442;153.014;2022-07-22T00:12:51;101772.94;;;20.29
64916;BMP280;51427;-27.442;153.014;2022-07-22T00:15:19;101788.47;;;20.12
64916;BMP280;51427;-27.442;153.014;2022-07-22T00:17:47;101793.09;;;19.99
64916;BMP280;51427;-27.442;153.014;2022-07-22T00:20:15;101788.22;;;19.94
64916;BMP280;51427;-27.442;153.014;2022-07-22T00:22:42;101778.72;;;19.61
64916;BMP280;51427;-27.442;153.014;2022-07-22T00:25:10;101777.28;;;19.57
64916;BMP280;51427;-27.442;153.014;2022-07-22T00:27:37;101772.97;;;19.67
64916;BMP280;51427;-27.442;153.014;2022-07-22T00:30:05;101761.44;;;20.30
64916;BMP280;51427;-27.442;153.014;2022-07-22T00:32:33;101763.81;;;19.92
64916;BMP280;51427;-27.442;153.014;2022-07-22T00:35:01;101754.06;;;19.73
64916;BMP280;51427;-27.442;153.014;2022-07-22T00:37:29;101764.97;;;19.15
64916;BMP280;51427;-27.442;153.014;2022-07-22T00:39:56;101748.94;;;19.71
64916;BMP280;51427;-27.442;153.014;2022-07-22T00:42:24;101756.03;;;19.49
64916;BMP280;51427;-27.442;153.014;2022-07-22T00:44:52;101739.56;;;20.09
64916;BMP280;51427;-27.442;153.014;2022-07-22T00:47:19;101740.22;;;19.29
64916;BMP280;51427;-27.442;153.014;2022-07-22T00:49:47;101730.03;;;20.38
64916;BMP280;51427;-27.442;153.014;2022-07-22T00:52:15;101724.16;;;19.74
64916;BMP280;51427;-27.442;153.014;2022-07-22T00:54:42;101718.53;;;19.98
64916;BMP280;51427;-27.442;153.014;2022-07-22T00:57:10;101711.31;;;19.80
64916;BMP280;51427;-27.442;153.014;2022-07-22T00:59:38;101723.78;;;20.09
64916;BMP280;51427;-27.442;153.014;2022-07-22T01:02:05;101710.78;;;19.66
64916;BMP280;51427;-27.442;153.014;2022-07-22T01:04:33;101718.53;;;19.47
64916;BMP280;51427;-27.442;153.014;2022-07-22T01:07:01;101727.59;;;19.43
64916;BMP280;51427;-27.442;153.014;2022-07-22T01:16:30;101724.34;;;19.92
64916;BMP280;51427;-27.442;153.014;2022-07-22T01:18:58;101736.19;;;19.56
64916;BMP280;51427;-27.442;153.014;2022-07-22T01:21:26;101710.00;;;19.86
64916;BMP280;51427;-27.442;153.014;2022-07-22T01:23:53;101714.19;;;19.88
64916;BMP280;51427;-27.442;153.014;2022-07-22T01:26:21;101709.13;;;20.16
64916;BMP280;51427;-27.442;153.014;2022-07-22T01:28:49;101709.19;;;20.05
64916;BMP280;51427;-27.442;153.014;2022-07-22T01:31:16;101698.72;;;20.44
64916;BMP280;51427;-27.442;153.014;2022-07-22T01:33:44;101707.81;;;20.31
64916;BMP280;51427;-27.442;153.014;2022-07-22T01:36:11;101701.53;;;20.73
64916;BMP280;51427;-27.442;153.014;2022-07-22T01:38:39;101703.97;;;20.65
64916;BMP280;51427;-27.442;153.014;2022-07-22T01:41:07;101695.31;;;20.24
64916;BMP280;51427;-27.442;153.014;2022-07-22T01:43:34;101697.06;;;20.43
64916;BMP280;51427;-27.442;153.014;2022-07-22T01:46:02;101683.56;;;20.07
64916;BMP280;51427;-27.442;153.014;2022-07-22T01:48:30;101687.09;;;20.47
64916;BMP280;51427;-27.442;153.014;2022-07-22T01:50:59;101665.66;;;20.61
64916;BMP280;51427;-27.442;153.014;2022-07-22T01:53:27;101666.13;;;20.36
64916;BMP280;51427;-27.442;153.014;2022-07-22T01:55:54;101663.25;;;20.48
64916;BMP280;51427;-27.442;153.014;2022-07-22T01:58:22;101657.47;;;20.54
64916;BMP280;51427;-27.442;153.014;2022-07-22T02:00:50;101655.31;;;20.69
64916;BMP280;51427;-27.442;153.014;2022-07-22T02:03:17;101654.06;;;20.43
64916;BMP280;51427;-27.442;153.014;2022-07-22T02:05:45;101641.34;;;20.78
64916;BMP280;51427;-27.442;153.014;2022-07-22T02:08:13;101636.91;;;20.39
64916;BMP280;51427;-27.442;153.014;2022-07-22T02:10:40;101634.53;;;20.36
64916;BMP280;51427;-27.442;153.014;2022-07-22T02:13:08;101622.09;;;20.86
64916;BMP280;51427;-27.442;153.014;2022-07-22T02:15:36;101627.09;;;20.89
64916;BMP280;51427;-27.442;153.014;2022-07-22T02:18:17;101615.88;;;20.87
64916;BMP280;51427;-27.442;153.014;2022-07-22T02:20:46;101609.34;;;20.91
64916;BMP280;51427;-27.442;153.014;2022-07-22T02:23:14;101610.00;;;20.35
64916;BMP280;51427;-27.442;153.014;2022-07-22T02:25:42;101599.59;;;20.34
64916;BMP280;51427;-27.442;153.014;2022-07-22T02:28:10;101600.84;;;20.00
64916;BMP280;51427;-27.442;153.014;2022-07-22T02:30:38;101603.91;;;20.05
64916;BMP280;51427;-27.442;153.014;2022-07-22T02:33:06;101591.81;;;20.72
64916;BMP280;51427;-27.442;153.014;2022-07-22T02:35:33;101586.56;;;20.72
64916;BMP280;51427;-27.442;153.014;2022-07-22T02:38:01;101579.50;;;20.33
64916;BMP280;51427;-27.442;153.014;2022-07-22T02:40:29;101578.38;;;20.26
64916;BMP280;51427;-27.442;153.014;2022-07-22T02:42:57;101584.22;;;20.39
64916;BMP280;51427;-27.442;153.014;2022-07-22T02:45:24;101588.94;;;20.35
64916;BMP280;51427;-27.442;153.014;2022-07-22T02:47:54;101589.53;;;20.48
64916;BMP280;51427;-27.442;153.014;2022-07-22T02:50:22;101589.56;;;20.19
64916;BMP280;51427;-27.442;153.014;2022-07-22T02:52:51;101587.59;;;20.11
64916;BMP280;51427;-27.442;153.014;2022-07-22T02:55:19;101589.78;;;20.45
64916;BMP280;51427;-27.442;153.014;2022-07-22T02:57:46;101578.69;;;19.62
64916;BMP280;51427;-27.442;153.014;2022-07-22T03:00:14;101563.88;;;20.50
64916;BMP280;51427;-27.442;153.014;2022-07-22T03:02:42;101549.72;;;21.00
64916;BMP280;51427;-27.442;153.014;2022-07-22T03:05:12;101560.94;;;20.44
64916;BMP280;51427;-27.442;153.014;2022-07-22T03:07:40;101546.56;;;20.57
64916;BMP280;51427;-27.442;153.014;2022-07-22T03:10:08;101547.66;;;20.45
64916;BMP280;51427;-27.442;153.014;2022-07-22T03:12:35;101532.91;;;20.91
64916;BMP280;51427;-27.442;153.014;2022-07-22T03:15:05;101520.94;;;20.69
64916;BMP280;51427;-27.442;153.014;2022-07-22T03:17:36;101535.16;;;20.38
64916;BMP280;51427;-27.442;153.014;2022-07-22T03:20:09;101528.66;;;20.03
64916;BMP280;51427;-27.442;153.014;2022-07-22T03:22:37;101515.38;;;20.53
64916;BMP280;51427;-27.442;153.014;2022-07-22T03:25:05;101496.66;;;20.46
64916;BMP280;51427;-27.442;153.014;2022-07-22T03:27:33;101489.75;;;21.11
64916;BMP280;51427;-27.442;153.014;2022-07-22T03:30:01;101486.09;;;20.37
64916;BMP280;51427;-27.442;153.014;2022-07-22T03:32:28;101463.84;;;20.79
64916;BMP280;51427;-27.442;153.014;2022-07-22T03:34:56;101458.03;;;20.84
64916;BMP280;51427;-27.442;153.014;2022-07-22T03:37:24;101461.22;;;20.79
64916;BMP280;51427;-27.442;153.014;2022-07-22T03:39:51;101459.78;;;20.56
64916;BMP280;51427;-27.442;153.014;2022-07-22T03:42:19;101455.88;;;20.50
64916;BMP280;51427;-27.442;153.014;2022-07-22T03:44:46;101456.19;;;20.57
64916;BMP280;51427;-27.442;153.014;2022-07-22T03:47:23;101453.69;;;20.65
64916;BMP280;51427;-27.442;153.014;2022-07-22T03:49:51;101447.53;;;20.17
64916;BMP280;51427;-27.442;153.014;2022-07-22T03:52:19;101460.34;;;19.62
64916;BMP280;51427;-27.442;153.014;2022-07-22T03:54:47;101464.66;;;19.93
64916;BMP280;51427;-27.442;153.014;2022-07-22T03:57:14;101462.56;;;19.67
64916;BMP280;51427;-27.442;153.014;2022-07-22T03:59:42;101476.50;;;19.58
64916;BMP280;51427;-27.442;153.014;2022-07-22T04:02:09;101456.03;;;19.61
64916;BMP280;51427;-27.442;153.014;2022-07-22T04:04:37;101463.38;;;20.64
64916;BMP280;51427;-27.442;153.014;2022-07-22T04:07:05;101463.34;;;20.17
64916;BMP280;51427;-27.442;153.014;2022-07-22T04:09:32;101469.63;;;20.54
64916;BMP280;51427;-27.442;153.014;2022-07-22T04:12:00;101469.47;;;20.46
64916;BMP280;51427;-27.442;153.014;2022-07-22T04:14:27;101477.50;;;21.38
64916;BMP280;51427;-27.442;153.014;2022-07-22T04:16:55;101468.81;;;21.00
64916;BMP280;51427;-27.442;153.014;2022-07-22T04:19:23;101483.50;;;20.56
64916;BMP280;51427;-27.442;153.014;2022-07-22T04:21:50;101476.94;;;20.41
64916;BMP280;51427;-27.442;153.014;2022-07-22T04:24:18;101476.41;;;20.66
64916;BMP280;51427;-27.442;153.014;2022-07-22T04:26:46;101477.28;;;20.76
64916;BMP280;51427;-27.442;153.014;2022-07-22T04:29:13;101478.22;;;20.65
64916;BMP280;51427;-27.442;153.014;2022-07-22T04:31:41;101474.22;;;21.08
64916;BMP280;51427;-27.442;153.014;2022-07-22T04:34:08;101482.28;;;20.79
64916;BMP280;51427;-27.442;153.014;2022-07-22T04:36:36;101480.16;;;20.54
64916;BMP280;51427;-27.442;153.014;2022-07-22T04:39:03;101458.97;;;20.93
64916;BMP280;51427;-27.442;153.014;2022-07-22T04:41:32;101471.81;;;20.30
64916;BMP280;51427;-27.442;153.014;2022-07-22T04:44:00;101449.63;;;21.17
64916;BMP280;51427;-27.442;153.014;2022-07-22T04:46:28;101456.19;;;20.57
64916;BMP280;51427;-27.442;153.014;2022-07-22T04:48:55;101449.47;;;21.28
64916;BMP280;51427;-27.442;153.014;2022-07-22T04:51:23;101456.97;;;21.23
64916;BMP280;51427;-27.442;153.014;2022-07-22T04:53:51;101461.03;;;21.08
64916;BMP280;51427;-27.442;153.014;2022-07-22T04:56:18;101464.50;;;20.99
64916;BMP280;51427;-27.442;153.014;2022-07-22T04:58:46;101466.75;;;20.85
64916;BMP280;51427;-27.442;153.014;2022-07-22T05:01:14;101475.97;;;21.27
64916;BMP280;51427;-27.442;153.014;2022-07-22T05:03:42;101473.38;;;21.72
64916;BMP280;51427;-27.442;153.014;2022-07-22T05:06:09;101477.38;;;21.12
64916;BMP280;51427;-27.442;153.014;2022-07-22T05:08:37;101478.16;;;21.50
64916;BMP280;51427;-27.442;153.014;2022-07-22T05:11:06;101476.66;;;21.28
64916;BMP280;51427;-27.442;153.014;2022-07-22T05:13:33;101484.78;;;20.71
64916;BMP280;51427;-27.442;153.014;2022-07-22T05:16:05;101477.81;;;20.51
64916;BMP280;51427;-27.442;153.014;2022-07-22T05:18:33;101479.09;;;20.84
64916;BMP280;51427;-27.442;153.014;2022-07-22T05:21:02;101474.31;;;21.26
64916;BMP280;51427;-27.442;153.014;2022-07-22T05:23:30;101478.94;;;21.14
64916;BMP280;51427;-27.442;153.014;2022-07-22T05:25:58;101472.44;;;21.64
64916;BMP280;51427;-27.442;153.014;2022-07-22T05:28:26;101487.84;;;20.76
64916;BMP280;51427;-27.442;153.014;2022-07-22T05:30:54;101477.97;;;20.01
64916;BMP280;51427;-27.442;153.014;2022-07-22T05:33:21;101485.88;;;20.78
64916;BMP280;51427;-27.442;153.014;2022-07-22T05:35:49;101483.38;;;20.76
64916;BMP280;51427;-27.442;153.014;2022-07-22T05:38:16;101484.59;;;20.63
64916;BMP280;51427;-27.442;153.014;2022-07-22T05:40:44;101485.59;;;21.18
64916;BMP280;51427;-27.442;153.014;2022-07-22T05:43:12;101481.03;;;20.82
64916;BMP280;51427;-27.442;153.014;2022-07-22T05:45:39;101476.66;;;20.34
64916;BMP280;51427;-27.442;153.014;2022-07-22T05:48:07;101475.72;;;20.54
64916;BMP280;51427;-27.442;153.014;2022-07-22T05:50:35;101472.09;;;20.46
64916;BMP280;51427;-27.442;153.014;2022-07-22T05:53:03;101473.91;;;20.36
64916;BMP280;51427;-27.442;153.014;2022-07-22T05:55:31;101477.09;;;20.49
64916;BMP280;51427;-27.442;153.014;2022-07-22T05:57:58;101477.75;;;20.23
64916;BMP280;51427;-27.442;153.014;2022-07-22T06:00:26;101481.59;;;19.30
64916;BMP280;51427;-27.442;153.014;2022-07-22T06:02:54;101451.13;;;20.16
64916;BMP280;51427;-27.442;153.014;2022-07-22T06:05:21;101459.13;;;20.05
64916;BMP280;51427;-27.442;153.014;2022-07-22T06:07:49;101458.44;;;20.71
64916;BMP280;51427;-27.442;153.014;2022-07-22T06:10:17;101459.03;;;20.16
64916;BMP280;51427;-27.442;153.014;2022-07-22T06:12:45;101460.03;;;20.25
64916;BMP280;51427;-27.442;153.014;2022-07-22T06:15:12;101462.84;;;20.98
64916;BMP280;51427;-27.442;153.014;2022-07-22T06:17:40;101465.47;;;20.61
64916;BMP280;51427;-27.442;153.014;2022-07-22T06:20:08;101477.47;;;20.35
64916;BMP280;51427;-27.442;153.014;2022-07-22T06:22:36;101476.69;;;20.53
64916;BMP280;51427;-27.442;153.014;2022-07-22T06:25:06;101477.81;;;20.51
64916;BMP280;51427;-27.442;153.014;2022-07-22T06:27:35;101473.97;;;20.06
64916;BMP280;51427;-27.442;153.014;2022-07-22T06:30:04;101470.72;;;20.42
64916;BMP280;51427;-27.442;153.014;2022-07-22T06:32:32;101475.47;;;20.09
64916;BMP280;51427;-27.442;153.014;2022-07-22T06:34:59;101478.63;;;20.51
64916;BMP280;51427;-27.442;153.014;2022-07-22T06:37:27;101478.91;;;20.58
64916;BMP280;51427;-27.442;153.014;2022-07-22T06:39:54;101471.75;;;20.11
64916;BMP280;51427;-27.442;153.014;2022-07-22T06:42:22;101456.44;;;21.10
64916;BMP280;51427;-27.442;153.014;2022-07-22T06:44:51;101444.94;;;20.36
64916;BMP280;51427;-27.442;153.014;2022-07-22T06:47:19;101455.06;;;20.59
64916;BMP280;51427;-27.442;153.014;2022-07-22T06:49:46;101437.34;;;21.44
64916;BMP280;51427;-27.442;153.014;2022-07-22T06:52:14;101442.22;;;21.49
64916;BMP280;51427;-27.442;153.014;2022-07-22T06:54:42;101437.94;;;21.38
64916;BMP280;51427;-27.442;153.014;2022-07-22T06:57:09;101444.84;;;20.84
64916;BMP280;51427;-27.442;153.014;2022-07-22T06:59:38;101445.09;;;21.00
64916;BMP280;51427;-27.442;153.014;2022-07-22T07:02:06;101447.03;;;20.98
64916;BMP280;51427;-27.442;153.014;2022-07-22T07:04:33;101452.97;;;21.19
64916;BMP280;51427;-27.442;153.014;2022-07-22T07:07:01;101447.31;;;20.77
64916;BMP280;51427;-27.442;153.014;2022-07-22T07:09:28;101456.53;;;21.82
64916;BMP280;51427;-27.442;153.014;2022-07-22T07:11:56;101458.78;;;21.32
64916;BMP280;51427;-27.442;153.014;2022-07-22T07:14:24;101469.88;;;21.26
64916;BMP280;51427;-27.442;153.014;2022-07-22T07:16:52;101480.91;;;21.03
64916;BMP280;51427;-27.442;153.014;2022-07-22T07:19:19;101490.44;;;20.94
64916;BMP280;51427;-27.442;153.014;2022-07-22T07:21:47;101487.28;;;20.91
64916;BMP280;51427;-27.442;153.014;2022-07-22T07:24:14;101480.72;;;20.48
64916;BMP280;51427;-27.442;153.014;2022-07-22T07:26:42;101486.00;;;20.09
64916;BMP280;51427;-27.442;153.014;2022-07-22T07:29:10;101469.66;;;20.73
64916;BMP280;51427;-27.442;153.014;2022-07-22T07:31:37;101464.47;;;21.27
64916;BMP280;51427;-27.442;153.014;2022-07-22T07:34:05;101463.66;;;21.73
64916;BMP280;51427;-27.442;153.014;2022-07-22T07:36:32;101471.47;;;20.72
64916;BMP280;51427;-27.442;153.014;2022-07-22T07:39:00;101484.50;;;20.92
64916;BMP280;51427;-27.442;153.014;2022-07-22T07:41:28;101470.78;;;20.98
64916;BMP280;51427;-27.442;153.014;2022-07-22T07:43:55;101492.22;;;20.66
64916;BMP280;51427;-27.442;153.014;2022-07-22T07:46:23;101476.44;;;21.03
64916;BMP280;51427;-27.442;153.014;2022-07-22T07:48:51;101486.28;;;20.92
64916;BMP280;51427;-27.442;153.014;2022-07-22T07:51:18;101481.28;;;20.80
64916;BMP280;51427;-27.442;153.014;2022-07-22T07:53:46;101475.13;;;21.45
64916;BMP280;51427;-27.442;153.014;2022-07-22T07:56:14;101470.91;;;20.97
64916;BMP280;51427;-27.442;153.014;2022-07-22T07:58:42;101469.50;;;21.21
64916;BMP280;51427;-27.442;153.014;2022-07-22T08:01:10;101475.47;;;20.95
64916;BMP280;51427;-27.442;153.014;2022-07-22T08:03:37;101478.13;;;20.67
64916;BMP280;51427;-27.442;153.014;2022-07-22T08:06:05;101473.88;;;21.30
64916;BMP280;51427;-27.442;153.014;2022-07-22T08:08:33;101492.06;;;21.52
64916;BMP280;51427;-27.442;153.014;2022-07-22T08:11:01;101493.50;;;21.82
64916;BMP280;51427;-27.442;153.014;2022-07-22T08:13:29;101499.88;;;21.06
64916;BMP280;51427;-27.442;153.014;2022-07-22T08:15:56;101502.88;;;21.58
64916;BMP280;51427;-27.442;153.014;2022-07-22T08:18:25;101496.69;;;21.12
64916;BMP280;51427;-27.442;153.014;2022-07-22T08:20:53;101488.31;;;21.45
64916;BMP280;51427;-27.442;153.014;2022-07-22T08:23:21;101487.50;;;20.60
64916;BMP280;51427;-27.442;153.014;2022-07-22T08:25:49;101478.66;;;20.70
64916;BMP280;51427;-27.442;153.014;2022-07-22T08:28:16;101474.66;;;20.85
64916;BMP280;51427;-27.442;153.014;2022-07-22T08:30:44;101469.94;;;20.70
64916;BMP280;51427;-27.442;153.014;2022-07-22T08:33:12;101468.94;;;21.08
64916;BMP280;51427;-27.442;153.014;2022-07-22T08:35:39;101462.81;;;21.17
64916;BMP280;51427;-27.442;153.014;2022-07-22T08:38:07;101464.22;;;21.21
64916;BMP280;51427;-27.442;153.014;2022-07-22T08:40:36;101462.16;;;21.61
64916;BMP280;51427;-27.442;153.014;2022-07-22T08:43:05;101471.75;;;20.79
64916;BMP280;51427;-27.442;153.014;2022-07-22T08:45:33;101467.97;;;21.09
64916;BMP280;51427;-27.442;153.014;2022-07-22T08:48:01;101462.03;;;20.88
64916;BMP280;51427;-27.442;153.014;2022-07-22T08:50:32;101462.97;;;20.50
64916;BMP280;51427;-27.442;153.014;2022-07-22T08:53:00;101457.69;;;20.50
64916;BMP280;51427;-27.442;153.014;2022-07-22T08:55:27;101460.09;;;20.90
64916;BMP280;51427;-27.442;153.014;2022-07-22T08:57:55;101462.41;;;20.56
64916;BMP280;51427;-27.442;153.014;2022-07-22T09:00:23;101475.75;;;20.82
64916;BMP280;51427;-27.442;153.014;2022-07-22T09:02:51;101480.16;;;21.10
64916;BMP280;51427;-27.442;153.014;2022-07-22T09:05:19;101479.75;;;21.15
64916;BMP280;51427;-27.442;153.014;2022-07-22T09:07:46;101484.72;;;21.46
64916;BMP280;51427;-27.442;153.014;2022-07-22T09:10:17;101485.00;;;21.15
64916;BMP280;51427;-27.442;153.014;2022-07-22T09:12:54;101485.75;;;20.12
64916;BMP280;51427;-27.442;153.014;2022-07-22T09:15:31;101483.63;;;20.64
64916;BMP280;51427;-27.442;153.014;2022-07-22T09:18:03;101477.53;;;21.01
64916;BMP280;51427;-27.442;153.014;2022-07-22T09:20:32;101481.88;;;20.74
64916;BMP280;51427;-27.442;153.014;2022-07-22T09:23:00;101486.16;;;21.12
64916;BMP280;51427;-27.442;153.014;2022-07-22T09:30:39;101498.44;;;20.46
64916;BMP280;51427;-27.442;153.014;2022-07-22T09:33:08;101505.63;;;19.95
64916;BMP280;51427;-27.442;153.014;2022-07-22T09:35:36;101487.81;;;19.79
64916;BMP280;51427;-27.442;153.014;2022-07-22T09:38:07;101494.75;;;20.09
64916;BMP280;51427;-27.442;153.014;2022-07-22T09:40:37;101481.47;;;20.87
64916;BMP280;51427;-27.442;153.014;2022-07-22T09:43:10;101483.94;;;21.08
64916;BMP280;51427;-27.442;153.014;2022-07-22T09:45:51;101481.16;;;21.09
64916;BMP280;51427;-27.442;153.014;2022-07-22T09:48:21;101490.72;;;20.91
64916;BMP280;51427;-27.442;153.014;2022-07-22T09:50:51;101497.81;;;21.00
64916;BMP280;51427;-27.442;153.014;2022-07-22T09:53:20;101501.06;;;20.46
64916;BMP280;51427;-27.442;153.014;2022-07-22T09:55:49;101497.88;;;20.52
64916;BMP280;51427;-27.442;153.014;2022-07-22T09:58:17;101493.16;;;20.46
64916;BMP280;51427;-27.442;153.014;2022-07-22T10:00:45;101499.63;;;20.90
64916;BMP280;51427;-27.442;153.014;2022-07-22T10:03:19;101493.34;;;21.10
64916;BMP280;51427;-27.442;153.014;2022-07-22T10:05:48;101502.81;;;20.75
64916;BMP280;51427;-27.442;153.014;2022-07-22T10:08:17;101495.31;;;20.71
64916;BMP280;51427;-27.442;153.014;2022-07-22T10:10:45;101492.28;;;20.94
64916;BMP280;51427;-27.442;153.014;2022-07-22T10:13:13;101477.22;;;21.32
64916;BMP280;51427;-27.442;153.014;2022-07-22T10:15:41;101496.00;;;20.73
64916;BMP280;51427;-27.442;153.014;2022-07-22T10:18:14;101486.13;;;20.65
64916;BMP280;51427;-27.442;153.014;2022-07-22T10:20:42;101491.81;;;20.03
64916;BMP280;51427;-27.442;153.014;2022-07-22T10:23:11;101493.34;;;20.63
64916;BMP280;51427;-27.442;153.014;2022-07-22T10:25:52;101490.88;;;20.13
64916;BMP280;51427;-27.442;153.014;2022-07-22T10:28:36;101484.16;;;19.90
64916;BMP280;51427;-27.442;153.014;2022-07-22T10:31:22;101493.66;;;20.88
64916;BMP280;51427;-27.442;153.014;2022-07-22T10:33:52;101491.72;;;20.90
64916;BMP280;51427;-27.442;153.014;2022-07-22T10:36:38;101498.88;;;19.73
64916;BMP280;51427;-27.442;153.014;2022-07-22T10:39:11;101504.88;;;20.72
64916;BMP280;51427;-27.442;153.014;2022-07-22T10:41:44;101511.56;;;19.68
64916;BMP280;51427;-27.442;153.014;2022-07-22T10:44:12;101520.06;;;20.40
64916;BMP280;51427;-27.442;153.014;2022-07-22T10:49:19;101498.75;;;20.62
64916;BMP280;51427;-27.442;153.014;2022-07-22T10:52:09;101500.28;;;20.06
64916;BMP280;51427;-27.442;153.014;2022-07-22T10:57:41;101450.84;;;20.19
64916;BMP280;51427;-27.442;153.014;2022-07-22T11:00:09;101462.56;;;19.67
64916;BMP280;51427;-27.442;153.014;2022-07-22T11:02:38;101478.84;;;19.51
64916;BMP280;51427;-27.442;153.014;2022-07-22T11:05:06;101481.94;;;20.63
64916;BMP280;51427;-27.442;153.014;2022-07-22T11:07:41;101491.81;;;20.03
64916;BMP280;51427;-27.442;153.014;2022-07-22T11:10:19;101478.34;;;19.67
64916;BMP280;51427;-27.442;153.014;2022-07-22T11:12:49;101475.34;;;20.10
64916;BMP280;51427;-27.442;153.014;2022-07-22T11:15:17;101464.75;;;20.40
64916;BMP280;51427;-27.442;153.014;2022-07-22T11:17:45;101466.47;;;20.79
64916;BMP280;51427;-27.442;153.014;2022-07-22T11:20:13;101466.81;;;20.27
64916;BMP280;51427;-27.442;153.014;2022-07-22T11:22:41;101475.22;;;20.70
64916;BMP280;51427;-27.442;153.014;2022-07-22T11:25:10;101457.16;;;20.84
64916;BMP280;51427;-27.442;153.014;2022-07-22T11:27:39;101453.06;;;19.85
64916;BMP280;51427;-27.442;153.014;2022-07-22T11:30:07;101446.78;;;20.73
64916;BMP280;51427;-27.442;153.014;2022-07-22T11:32:42;101467.50;;;20.29
64916;BMP280;51427;-27.442;153.014;2022-07-22T11:35:13;101460.31;;;20.59
64916;BMP280;51427;-27.442;153.014;2022-07-22T11:37:41;101449.69;;;20.89
64916;BMP280;51427;-27.442;153.014;2022-07-22T11:40:10;101466.22;;;20.72
64916;BMP280;51427;-27.442;153.014;2022-07-22T11:42:37;101457.03;;;20.67
64916;BMP280;51427;-27.442;153.014;2022-07-22T11:45:06;101471.06;;;20.09
64916;BMP280;51427;-27.442;153.014;2022-07-22T11:47:33;101451.00;;;20.36
64916;BMP280;51427;-27.442;153.014;2022-07-22T11:50:01;101455.84;;;20.22
64916;BMP280;51427;-27.442;153.014;2022-07-22T11:52:29;101462.31;;;19.99
64916;BMP280;51427;-27.442;153.014;2022-07-22T11:54:56;101471.72;;;19.92
64916;BMP280;51427;-27.442;153.014;2022-07-22T11:57:24;101480.22;;;20.15
64916;BMP280;51427;-27.442;153.014;2022-07-22T11:59:52;101472.44;;;19.74
64916;BMP280;51427;-27.442;153.014;2022-07-22T12:02:19;101468.47;;;20.28
64916;BMP280;51427;-27.442;153.014;2022-07-22T12:04:48;101469.50;;;20.65
64916;BMP280;51427;-27.442;153.014;2022-07-22T12:07:16;101474.19;;;20.42
64916;BMP280;51427;-27.442;153.014;2022-07-22T12:09:45;101470.31;;;20.56
64916;BMP280;51427;-27.442;153.014;2022-07-22T12:12:13;101468.97;;;20.71
64916;BMP280;51427;-27.442;153.014;2022-07-22T12:14:46;101458.88;;;20.08
64916;BMP280;51427;-27.442;153.014;2022-07-22T12:17:14;101456.19;;;20.57
64916;BMP280;51427;-27.442;153.014;2022-07-22T12:19:42;101462.03;;;20.02
64916;BMP280;51427;-27.442;153.014;2022-07-22T12:22:20;101460.59;;;20.66
64916;BMP280;51427;-27.442;153.014;2022-07-22T12:24:59;101465.06;;;20.75
64916;BMP280;51427;-27.442;153.014;2022-07-22T12:27:28;101465.50;;;20.70
64916;BMP280;51427;-27.442;153.014;2022-07-22T12:29:57;101470.34;;;20.07
64916;BMP280;51427;-27.442;153.014;2022-07-22T12:32:28;101465.25;;;20.15
64916;BMP280;51427;-27.442;153.014;2022-07-22T12:35:03;101463.66;;;20.52
64916;BMP280;51427;-27.442;153.014;2022-07-22T12:37:43;101468.25;;;20.78
64916;BMP280;51427;-27.442;153.014;2022-07-22T12:40:18;101469.66;;;20.05
64916;BMP280;51427;-27.442;153.014;2022-07-22T12:43:03;101470.25;;;20.28
64916;BMP280;51427;-27.442;153.014;2022-07-22T12:45:33;101461.59;;;20.65
64916;BMP280;51427;-27.442;153.014;2022-07-22T12:48:05;101461.41;;;20.38
64916;BMP280;51427;-27.442;153.014;2022-07-22T12:50:55;101454.63;;;20.26
64916;BMP280;51427;-27.442;153.014;2022-07-22T12:53:24;101460.59;;;20.37
64916;BMP280;51427;-27.442;153.014;2022-07-22T12:55:57;101457.28;;;20.64
64916;BMP280;51427;-27.442;153.014;2022-07-22T12:58:31;101465.19;;;20.45
64916;BMP280;51427;-27.442;153.014;2022-07-22T13:01:00;101468.09;;;20.51
64916;BMP280;51427;-27.442;153.014;2022-07-22T13:03:29;101459.78;;;20.37
64916;BMP280;51427;-27.442;153.014;2022-07-22T13:05:59;101462.28;;;20.85
64916;BMP280;51427;-27.442;153.014;2022-07-22T13:08:28;101459.66;;;21.04
64916;BMP280;51427;-27.442;153.014;2022-07-22T13:10:56;101451.19;;;20.91
64916;BMP280;51427;-27.442;153.014;2022-07-22T13:13:25;101450.63;;;20.97
64916;BMP280;51427;-27.442;153.014;2022-07-22T13:15:52;101455.06;;;20.59
64916;BMP280;51427;-27.442;153.014;2022-07-22T13:18:20;101450.34;;;20.53
64916;BMP280;51427;-27.442;153.014;2022-07-22T13:20:48;101448.84;;;20.51
64916;BMP280;51427;-27.442;153.014;2022-07-22T13:23:15;101434.25;;;20.66
64916;BMP280;51427;-27.442;153.014;2022-07-22T13:25:43;101426.09;;;20.78
64916;BMP280;51427;-27.442;153.014;2022-07-22T13:28:11;101427.78;;;20.70
64916;BMP280;51427;-27.442;153.014;2022-07-22T13:30:38;101446.19;;;20.51
64916;BMP280;51427;-27.442;153.014;2022-07-22T13:33:06;101462.84;;;21.08
64916;BMP280;51427;-27.442;153.014;2022-07-22T13:35:33;101468.91;;;20.42
64916;BMP280;51427;-27.442;153.014;2022-07-22T13:38:01;101473.06;;;20.35
64916;BMP280;51427;-27.442;153.014;2022-07-22T13:40:29;101467.53;;;20.38
64916;BMP280;51427;-27.442;153.014;2022-07-22T13:42:57;101471.25;;;19.88
64916;BMP280;51427;-27.442;153.014;2022-07-22T13:45:25;101480.56;;;20.49
64916;BMP280;51427;-27.442;153.014;2022-07-22T13:47:53;101483.66;;;20.06